Time;durP1;ratioP1;P1;durP2;ratioP2;P2;SDS_P1;SDS_P2;PMS_P1;PMS_P2;Temp;Humidity;BMP_temperature;BMP_pressure;BME280_temperature;BME280_humidity;BME280_pressure;Samples;Min_cycle;Max_cycle;Signal;HPM_P1;HPM_P2
2022/07/30 00:01:03;;;;;;;6.00;5.40;;;26.70;54.30;;;;;;5024335;28;20194;-44
2022/07/30 00:03:29;;;;;;;5.00;4.60;;;26.70;54.20;;;;;;5023832;28;20229;-43
2022/07/30 00:05:55;;;;;;;5.80;5.40;;;26.70;54.00;;;;;;5029583;28;20269;-42
2022/07/30 00:08:22;;;;;;;5.57;5.17;;;26.70;53.90;;;;;;5021874;28;20193;-42
2022/07/30 00:10:48;;;;;;;5.70;5.30;;;26.80;54.40;;;;;;5020935;28;20531;-43
2022/07/30 00:13:14;;;;;;;5.50;5.00;;;26.80;53.60;;;;;;5037023;28;20460;-47
2022/07/30 00:15:40;;;;;;;5.70;5.30;;;26.80;53.40;;;;;;5018310;28;21045;-43
2022/07/30 00:18:05;;;;;;;6.07;5.57;;;26.80;53.20;;;;;;5026469;28;20200;-47
2022/07/30 00:20:31;;;;;;;5.80;5.30;;;26.80;53.20;;;;;;5028745;28;20197;-44
2022/07/30 00:22:57;;;;;;;7.43;4.80;;;26.80;53.20;;;;;;5019913;28;20225;-44
2022/07/30 00:25:23;;;;;;;6.30;5.70;;;26.80;53.30;;;;;;5025739;28;20194;-43
2022/07/30 00:27:48;;;;;;;6.10;5.60;;;26.70;53.40;;;;;;5022152;28;20193;-43
2022/07/30 00:30:14;;;;;;;7.20;5.60;;;26.70;53.50;;;;;;5028148;28;20943;-42
2022/07/30 00:32:40;;;;;;;5.13;4.73;;;26.70;53.50;;;;;;5021193;28;20197;-43
2022/07/30 00:35:06;;;;;;;4.97;4.67;;;26.70;53.60;;;;;;5024891;28;20320;-43
2022/07/30 00:37:32;;;;;;;6.07;5.67;;;26.70;53.60;;;;;;5022999;28;20282;-43
2022/07/30 00:39:57;;;;;;;11.20;5.83;;;26.70;53.50;;;;;;5019286;28;20494;-43
2022/07/30 00:42:26;;;;;;;5.30;4.90;;;26.70;53.40;;;;;;5019398;28;20234;-44
2022/07/30 00:44:52;;;;;;;5.90;5.40;;;26.80;53.40;;;;;;5024961;28;20693;-43
2022/07/30 00:47:17;;;;;;;6.10;5.70;;;26.80;53.20;;;;;;5024682;28;20451;-44
2022/07/30 00:49:43;;;;;;;6.20;5.70;;;26.80;53.20;;;;;;5025406;28;20274;-46
2022/07/30 00:52:09;;;;;;;5.90;5.50;;;26.70;53.20;;;;;;5029133;28;20547;-45
2022/07/30 00:54:34;;;;;;;6.33;5.83;;;26.70;53.40;;;;;;5023703;28;20213;-43
2022/07/30 00:57:00;;;;;;;6.10;5.60;;;26.70;53.40;;;;;;5028199;28;20193;-44
2022/07/30 00:59:28;;;;;;;5.40;5.00;;;26.60;53.50;;;;;;5023369;28;20276;-43
2022/07/30 01:01:54;;;;;;;5.40;5.00;;;26.60;53.60;;;;;;5019658;28;20204;-42
2022/07/30 01:04:20;;;;;;;6.20;5.70;;;26.60;53.60;;;;;;5021258;28;20488;-44
2022/07/30 01:06:45;;;;;;;5.87;5.27;;;26.60;53.50;;;;;;5026545;28;20569;-45
2022/07/30 01:09:11;;;;;;;5.97;5.57;;;26.60;53.60;;;;;;5027552;28;20455;-43
2022/07/30 01:11:39;;;;;;;5.73;5.33;;;26.60;53.60;;;;;;5015696;28;20201;-43
2022/07/30 01:14:06;;;;;;;5.97;5.57;;;26.60;53.50;;;;;;5017162;28;20442;-43
2022/07/30 01:16:36;;;;;;;5.30;4.83;;;26.60;53.50;;;;;;5018214;28;20433;-42
2022/07/30 01:22:15;;;;;;;5.83;5.33;;;26.60;53.20;;;;;;5025755;28;20447;-44
2022/07/30 01:25:04;;;;;;;6.47;5.90;;;26.60;53.20;;;;;;5023251;28;20567;-44
2022/07/30 01:27:34;;;;;;;6.53;5.93;;;26.60;53.20;;;;;;5024376;28;20462;-42
2022/07/30 01:30:03;;;;;;;5.40;5.10;;;26.60;53.20;;;;;;5025253;28;20443;-45
2022/07/30 01:32:31;;;;;;;5.67;5.33;;;26.60;53.20;;;;;;5025187;28;20455;-42
2022/07/30 01:34:59;;;;;;;7.40;5.50;;;26.60;53.80;;;;;;5018752;28;20483;-43
2022/07/30 01:37:26;;;;;;;8.63;7.13;;;26.60;53.20;;;;;;5018192;28;20487;-43
2022/07/30 01:39:53;;;;;;;5.70;5.20;;;26.50;52.90;;;;;;5022664;28;20505;-43
2022/07/30 01:42:22;;;;;;;4.93;4.63;;;26.50;52.90;;;;;;5018749;28;20451;-45
2022/07/30 01:44:49;;;;;;;7.20;6.63;;;26.50;53.10;;;;;;5018063;28;20492;-46
2022/07/30 01:47:16;;;;;;;8.37;6.00;;;26.50;52.90;;;;;;5020602;28;20818;-42
2022/07/30 01:49:44;;;;;;;6.40;5.90;;;26.50;53.10;;;;;;5021347;28;20440;-43
2022/07/30 01:52:11;;;;;;;5.63;5.13;;;26.40;53.00;;;;;;5024413;28;20858;-43
2022/07/30 01:54:38;;;;;;;5.33;4.93;;;26.40;53.20;;;;;;5027326;28;20454;-44
2022/07/30 01:57:05;;;;;;;6.80;6.27;;;26.40;53.20;;;;;;5018759;28;22482;-42
2022/07/30 01:59:33;;;;;;;6.40;5.80;;;26.40;53.10;;;;;;5021781;28;20440;-42
2022/07/30 02:01:59;;;;;;;6.17;5.77;;;26.40;53.10;;;;;;5024386;28;20440;-42
2022/07/30 02:04:26;;;;;;;6.47;6.00;;;26.40;53.60;;;;;;5017963;28;20488;-43
2022/07/30 02:07:01;;;;;;;6.77;6.17;;;26.40;53.10;;;;;;5026063;28;20887;-42
2022/07/30 02:09:45;;;;;;;5.53;5.13;;;26.40;53.10;;;;;;5026193;28;20492;-42
2022/07/30 02:12:27;;;;;;;5.03;4.73;;;26.40;53.20;;;;;;5023957;28;21288;-44
2022/07/30 02:15:05;;;;;;;8.10;7.50;;;26.30;53.20;;;;;;5026885;28;20446;-42
2022/07/30 02:17:38;;;;;;;8.03;7.23;;;26.30;53.40;;;;;;5026422;28;20443;-43
2022/07/30 02:20:04;;;;;;;6.60;6.17;;;26.30;53.80;;;;;;5027302;28;20441;-42
2022/07/30 02:22:34;;;;;;;7.63;6.97;;;26.20;54.00;;;;;;5025794;28;21061;-42
2022/07/30 02:25:01;;;;;;;6.93;6.43;;;26.10;54.00;;;;;;5024911;28;20494;-42
2022/07/30 02:27:32;;;;;;;6.90;6.23;;;26.10;54.20;;;;;;5025874;28;20530;-42
2022/07/30 02:30:00;;;;;;;7.63;7.03;;;26.10;54.10;;;;;;5029982;28;20990;-42
2022/07/30 02:32:28;;;;;;;6.90;6.40;;;26.10;54.20;;;;;;5031684;28;20443;-42
2022/07/30 02:34:59;;;;;;;7.27;6.77;;;26.00;54.10;;;;;;5024489;28;20535;-42
2022/07/30 02:37:27;;;;;;;6.80;6.23;;;26.00;54.00;;;;;;5022974;28;20480;-42
2022/07/30 02:39:54;;;;;;;7.23;6.57;;;26.00;54.10;;;;;;5030831;28;20469;-43
2022/07/30 02:42:23;;;;;;;8.00;6.50;;;25.90;54.10;;;;;;5031087;28;20443;-42
2022/07/30 02:44:51;;;;;;;7.40;6.80;;;25.90;54.10;;;;;;5030441;28;20541;-42
2022/07/30 02:47:20;;;;;;;6.97;6.37;;;25.80;53.80;;;;;;5031940;28;20451;-42
2022/07/30 02:49:49;;;;;;;8.27;7.47;;;25.80;53.90;;;;;;5030479;28;20448;-42
2022/07/30 02:52:16;;;;;;;7.77;7.07;;;25.70;54.30;;;;;;5031157;28;20837;-42
2022/07/30 02:54:43;;;;;;;6.50;6.03;;;25.60;54.30;;;;;;5024521;28;20824;-42
2022/07/30 02:57:10;;;;;;;6.57;5.97;;;25.60;54.60;;;;;;5027185;28;20565;-41
2022/07/30 02:59:38;;;;;;;7.73;7.03;;;25.60;54.40;;;;;;5027906;28;20440;-42
2022/07/30 03:02:06;;;;;;;7.50;6.90;;;25.60;54.50;;;;;;5026705;28;20468;-42
2022/07/30 03:04:32;;;;;;;8.17;7.40;;;25.60;54.30;;;;;;5016726;28;20578;-42
2022/07/30 03:06:59;;;;;;;6.87;6.27;;;25.60;54.10;;;;;;5019359;28;20448;-42
2022/07/30 03:09:26;;;;;;;6.07;5.67;;;25.60;54.20;;;;;;5019885;28;20460;-42
2022/07/30 03:11:54;;;;;;;7.27;6.73;;;25.60;54.60;;;;;;5023486;28;20443;-42
2022/07/30 03:14:20;;;;;;;7.17;6.50;;;25.60;54.30;;;;;;5022051;28;20790;-42
2022/07/30 03:16:52;;;;;;;5.43;5.03;;;25.60;54.00;;;;;;5029734;28;20470;-42
2022/07/30 03:19:21;;;;;;;7.67;7.00;;;25.60;54.10;;;;;;5025653;28;20432;-42
2022/07/30 03:21:49;;;;;;;7.83;7.03;;;25.60;53.80;;;;;;5021838;28;20455;-42
2022/07/30 03:24:16;;;;;;;7.10;6.47;;;25.60;53.50;;;;;;5022961;28;20524;-42
2022/07/30 03:26:44;;;;;;;10.27;7.80;;;25.60;54.00;;;;;;5022358;28;22803;-42
2022/07/30 03:29:12;;;;;;;8.13;7.40;;;25.60;53.80;;;;;;5025197;28;20509;-43
2022/07/30 03:31:39;;;;;;;8.03;7.33;;;25.60;53.70;;;;;;5023950;28;20447;-42
2022/07/30 03:34:07;;;;;;;6.17;5.67;;;25.60;53.50;;;;;;5015198;28;20804;-42
2022/07/30 03:36:34;;;;;;;7.17;6.57;;;25.60;54.00;;;;;;5023591;28;20602;-42
2022/07/30 03:39:02;;;;;;;6.93;6.37;;;25.60;54.00;;;;;;5023112;28;20526;-42
2022/07/30 03:41:29;;;;;;;6.90;5.57;;;25.60;53.70;;;;;;5022166;28;20451;-42
2022/07/30 03:43:55;;;;;;;7.60;7.00;;;25.60;53.60;;;;;;5022833;28;20487;-42
2022/07/30 03:46:21;;;;;;;6.90;6.40;;;25.60;53.50;;;;;;5025994;28;20502;-42
2022/07/30 03:48:47;;;;;;;6.07;5.57;;;25.60;53.50;;;;;;5024624;28;20951;-42
2022/07/30 03:51:15;;;;;;;7.30;6.60;;;25.60;53.50;;;;;;5014665;28;22028;-42
2022/07/30 03:53:41;;;;;;;5.40;5.00;;;25.60;53.20;;;;;;5023457;28;20955;-44
2022/07/30 03:56:07;;;;;;;5.93;5.43;;;25.60;53.50;;;;;;5015708;28;20452;-42
2022/07/30 03:58:33;;;;;;;6.00;5.50;;;25.60;53.50;;;;;;5022477;28;20259;-43
2022/07/30 04:00:59;;;;;;;9.33;4.90;;;25.60;53.40;;;;;;5018111;28;20444;-42
2022/07/30 04:03:30;;;;;;;7.37;6.67;;;25.60;53.30;;;;;;5030386;28;20223;-42
2022/07/30 04:05:56;;;;;;;5.67;5.17;;;25.70;53.20;;;;;;5024553;28;20193;-42
2022/07/30 04:08:22;;;;;;;10.40;6.27;;;25.70;53.00;;;;;;5027353;28;20898;-42
2022/07/30 04:10:48;;;;;;;7.00;6.40;;;25.70;52.40;;;;;;5023290;28;20232;-42
2022/07/30 04:13:14;;;;;;;7.20;6.70;;;25.60;52.50;;;;;;5023295;28;21896;-42
2022/07/30 04:15:50;;;;;;;7.33;6.67;;;25.60;52.90;;;;;;5021442;28;20435;-42
2022/07/30 04:18:17;;;;;;;7.30;6.57;;;25.60;52.80;;;;;;5022080;28;20454;-42
2022/07/30 04:20:47;;;;;;;7.60;6.90;;;25.50;52.80;;;;;;5024042;28;20791;-42
2022/07/30 04:23:14;;;;;;;7.13;6.40;;;25.40;53.10;;;;;;5022936;28;20549;-42
2022/07/30 04:25:40;;;;;;;8.20;6.93;;;25.40;53.20;;;;;;5021420;28;20539;-42
2022/07/30 04:28:08;;;;;;;7.00;6.40;;;25.30;52.90;;;;;;5015631;28;20499;-42
2022/07/30 04:30:34;;;;;;;8.10;5.60;;;25.30;53.10;;;;;;5018051;28;20432;-42
2022/07/30 04:33:00;;;;;;;6.17;5.57;;;25.30;53.30;;;;;;5021931;28;20961;-42
2022/07/30 04:35:30;;;;;;;6.20;5.70;;;25.30;53.40;;;;;;5029189;28;20657;-42
2022/07/30 04:37:56;;;;;;;6.93;5.30;;;25.40;53.50;;;;;;5022343;28;20559;-42
2022/07/30 04:40:21;;;;;;;5.80;5.30;;;25.30;53.20;;;;;;5017398;28;20536;-42
2022/07/30 04:42:47;;;;;;;6.70;6.10;;;25.00;53.80;;;;;;5026681;28;20999;-42
2022/07/30 04:45:13;;;;;;;6.03;5.40;;;24.90;54.40;;;;;;5022339;28;20197;-43
2022/07/30 04:47:38;;;;;;;8.13;7.33;;;25.00;54.40;;;;;;5017773;28;20515;-43
2022/07/30 04:50:08;;;;;;;5.87;5.47;;;25.00;54.30;;;;;;5025422;28;20193;-42
2022/07/30 04:52:35;;;;;;;5.57;5.03;;;25.00;54.10;;;;;;5022714;28;20270;-42
2022/07/30 04:55:04;;;;;;;7.77;5.60;;;25.00;54.20;;;;;;5022133;28;20928;-42
2022/07/30 04:57:30;;;;;;;7.33;6.20;;;24.80;54.20;;;;;;5028990;28;20491;-43
2022/07/30 04:59:57;;;;;;;6.20;5.60;;;24.80;54.30;;;;;;5027472;28;20448;-42
2022/07/30 05:02:28;;;;;;;6.00;5.20;;;24.90;54.40;;;;;;5026719;28;20476;-42
2022/07/30 05:04:54;;;;;;;7.33;6.73;;;25.00;54.00;;;;;;5019541;28;20492;-43
2022/07/30 05:07:21;;;;;;;5.23;4.83;;;25.00;53.90;;;;;;5023780;28;20963;-42
2022/07/30 05:09:47;;;;;;;6.23;5.73;;;25.10;53.80;;;;;;5019966;28;20540;-45
2022/07/30 05:12:13;;;;;;;4.80;4.40;;;25.20;53.60;;;;;;5026542;28;20444;-46
2022/07/30 05:14:38;;;;;;;4.53;4.23;;;25.20;53.80;;;;;;5026671;28;20794;-47
2022/07/30 05:17:04;;;;;;;4.80;4.40;;;25.30;53.80;;;;;;5024026;28;20201;-47
2022/07/30 05:19:30;;;;;;;4.40;4.00;;;25.30;53.60;;;;;;5023069;28;20228;-48
2022/07/30 05:21:56;;;;;;;4.93;4.53;;;25.50;53.30;;;;;;5020739;28;20193;-45
2022/07/30 05:24:21;;;;;;;4.33;4.03;;;25.50;52.90;;;;;;5025702;28;20274;-44
2022/07/30 05:26:47;;;;;;;5.50;4.30;;;25.60;52.60;;;;;;5016155;28;20284;-44
2022/07/30 05:29:13;;;;;;;4.80;4.33;;;25.60;52.40;;;;;;5024189;28;20280;-44
2022/07/30 05:31:39;;;;;;;5.23;4.40;;;25.70;52.30;;;;;;5023631;28;20263;-47
2022/07/30 05:34:05;;;;;;;5.10;4.30;;;25.70;52.00;;;;;;5029809;28;20439;-44
2022/07/30 05:36:31;;;;;;;4.57;4.17;;;25.80;51.90;;;;;;5023137;28;20236;-47
2022/07/30 05:38:57;;;;;;;4.37;3.97;;;25.80;51.70;;;;;;5026346;28;20447;-45
2022/07/30 05:41:22;;;;;;;4.77;4.37;;;25.80;51.60;;;;;;5034314;28;20993;-47
2022/07/30 05:43:48;;;;;;;6.33;5.13;;;25.80;51.50;;;;;;5031580;28;20233;-46
2022/07/30 05:46:13;;;;;;;4.60;4.20;;;25.80;51.40;;;;;;5022495;28;20208;-45
2022/07/30 05:48:39;;;;;;;6.33;4.63;;;25.90;51.50;;;;;;5035585;28;20221;-44
2022/07/30 05:51:05;;;;;;;5.77;5.27;;;25.90;51.50;;;;;;5027066;28;20586;-44
2022/07/30 05:53:31;;;;;;;4.80;4.10;;;25.90;51.60;;;;;;5028271;28;20205;-45
2022/07/30 05:55:57;;;;;;;7.43;4.90;;;25.90;51.60;;;;;;5028204;28;20197;-44
2022/07/30 05:58:23;;;;;;;4.93;4.17;;;25.90;51.50;;;;;;5024524;28;20446;-44
2022/07/30 06:00:48;;;;;;;5.23;4.77;;;25.90;51.40;;;;;;5031839;28;21284;-45
2022/07/30 06:03:14;;;;;;;6.53;4.90;;;26.00;51.40;;;;;;5027527;28;20343;-44
2022/07/30 06:05:40;;;;;;;7.87;5.30;;;26.00;51.40;;;;;;5018273;28;20634;-44
2022/07/30 06:08:06;;;;;;;6.20;5.60;;;26.00;51.40;;;;;;5031779;28;20452;-43
2022/07/30 06:10:32;;;;;;;6.93;5.93;;;26.10;50.80;;;;;;5040641;28;20242;-45
2022/07/30 06:12:58;;;;;;;6.77;5.90;;;26.00;51.40;;;;;;5031319;28;20213;-47
2022/07/30 06:15:23;;;;;;;6.33;5.67;;;25.90;52.10;;;;;;5024130;28;20452;-44
2022/07/30 06:17:49;;;;;;;6.93;6.20;;;25.90;52.40;;;;;;5039561;28;20508;-44
2022/07/30 06:20:16;;;;;;;9.33;5.87;;;25.90;52.50;;;;;;5027648;28;20206;-45
2022/07/30 06:22:42;;;;;;;8.73;6.13;;;25.90;52.50;;;;;;5027739;28;20248;-44
2022/07/30 06:25:09;;;;;;;8.23;5.83;;;25.80;51.80;;;;;;5029383;28;20487;-44
2022/07/30 06:27:35;;;;;;;5.73;5.13;;;25.80;51.40;;;;;;5027779;28;20205;-44
2022/07/30 06:30:04;;;;;;;7.07;6.30;;;25.80;51.40;;;;;;5034819;28;20495;-44
2022/07/30 06:32:29;;;;;;;5.90;5.50;;;25.80;50.90;;;;;;5023880;28;20447;-43
2022/07/30 06:34:55;;;;;;;6.93;5.80;;;25.80;50.20;;;;;;5031219;28;20517;-43
2022/07/30 06:37:21;;;;;;;6.03;5.43;;;25.80;50.50;;;;;;5024944;28;20237;-45
2022/07/30 06:39:47;;;;;;;9.60;6.20;;;25.80;50.50;;;;;;5030379;28;20664;-43
2022/07/30 06:42:12;;;;;;;13.00;5.93;;;25.80;50.20;;;;;;5035113;28;20233;-43
2022/07/30 06:44:38;;;;;;;5.33;4.87;;;25.80;50.10;;;;;;5028809;28;20883;-43
2022/07/30 06:47:04;;;;;;;5.90;5.40;;;25.80;49.60;;;;;;5031595;28;20220;-44
2022/07/30 06:49:34;;;;;;;6.20;5.60;;;25.90;49.60;;;;;;5031882;28;20201;-44
2022/07/30 06:52:00;;;;;;;6.43;5.40;;;25.90;49.40;;;;;;5030342;28;20200;-43
2022/07/30 06:54:26;;;;;;;6.60;5.10;;;25.90;49.10;;;;;;5032344;28;20446;-45
2022/07/30 06:56:52;;;;;;;9.03;5.40;;;25.90;48.70;;;;;;5032337;28;20444;-44
2022/07/30 06:59:17;;;;;;;6.03;5.07;;;26.00;48.30;;;;;;5040968;28;20196;-45
2022/07/30 07:01:43;;;;;;;7.10;5.17;;;26.10;48.30;;;;;;5036893;28;20269;-44
2022/07/30 07:04:09;;;;;;;5.53;5.00;;;26.20;48.80;;;;;;5038753;28;20232;-47
2022/07/30 07:06:34;;;;;;;8.00;4.70;;;26.30;48.20;;;;;;5032082;28;20572;-45
2022/07/30 07:09:00;;;;;;;6.20;4.57;;;26.30;47.70;;;;;;5031729;28;20194;-45
2022/07/30 07:11:26;;;;;;;6.63;4.77;;;26.20;47.10;;;;;;5031704;28;20668;-44
2022/07/30 07:13:51;;;;;;;7.03;4.80;;;26.20;46.20;;;;;;5030290;28;20204;-44
2022/07/30 07:16:23;;;;;;;6.50;5.07;;;26.30;46.00;;;;;;5028734;28;20230;-44
2022/07/30 07:18:51;;;;;;;8.23;4.90;;;26.40;45.60;;;;;;5030168;28;20201;-44
2022/07/30 07:21:17;;;;;;;7.87;4.40;;;26.50;45.70;;;;;;5029161;28;20448;-44
2022/07/30 07:23:42;;;;;;;4.83;4.40;;;26.60;45.70;;;;;;5023733;28;20979;-45
2022/07/30 07:26:09;;;;;;;4.53;4.23;;;26.60;45.20;;;;;;5033899;28;20435;-48
2022/07/30 07:28:35;;;;;;;5.03;4.60;;;26.80;45.40;;;;;;5038922;28;20330;-48
2022/07/30 07:31:01;;;;;;;7.83;5.00;;;26.80;45.10;;;;;;5033642;28;20507;-48
2022/07/30 07:33:27;;;;;;;7.53;4.60;;;26.70;45.00;;;;;;5031901;28;20296;-45
2022/07/30 07:35:54;;;;;;;5.17;4.63;;;26.70;45.20;;;;;;5031978;28;20436;-48
2022/07/30 07:38:20;;;;;;;5.23;4.30;;;26.70;44.90;;;;;;5027552;28;20204;-47
2022/07/30 07:40:46;;;;;;;4.87;4.23;;;26.80;45.10;;;;;;5033944;28;20436;-46
2022/07/30 07:43:13;;;;;;;5.27;4.67;;;26.90;45.20;;;;;;5031559;28;20476;-47
2022/07/30 07:45:39;;;;;;;5.13;4.60;;;27.00;44.60;;;;;;5030184;28;20434;-46
2022/07/30 07:48:05;;;;;;;6.90;4.87;;;27.10;44.70;;;;;;5028894;28;20559;-47
2022/07/30 07:50:31;;;;;;;5.37;3.60;;;27.20;44.30;;;;;;5037571;28;20523;-47
2022/07/30 07:52:56;;;;;;;4.70;4.30;;;27.30;44.40;;;;;;5031302;28;20197;-47
2022/07/30 07:55:22;;;;;;;7.00;4.33;;;27.40;44.50;;;;;;5031812;28;20199;-48
2022/07/30 07:57:48;;;;;;;4.03;3.60;;;27.50;43.40;;;;;;5033828;28;20189;-49
2022/07/30 08:00:14;;;;;;;4.70;4.20;;;27.60;43.40;;;;;;5028671;28;20185;-48
2022/07/30 08:02:40;;;;;;;6.23;5.20;;;27.70;43.50;;;;;;5024931;28;20352;-45
2022/07/30 08:05:09;;;;;;;6.40;4.33;;;27.70;42.20;;;;;;5028489;28;20502;-48
2022/07/30 08:07:34;;;;;;;9.40;5.00;;;27.70;42.90;;;;;;5028986;28;20667;-47
2022/07/30 08:10:00;;;;;;;5.33;4.10;;;27.80;42.90;;;;;;5031236;28;20424;-47
2022/07/30 08:12:26;;;;;;;6.70;4.60;;;27.90;41.90;;;;;;5026631;28;20743;-47
2022/07/30 08:14:52;;;;;;;6.07;4.37;;;27.80;41.50;;;;;;5022161;28;20185;-48
2022/07/30 08:17:18;;;;;;;4.90;4.33;;;27.90;41.60;;;;;;5026806;28;20189;-48
2022/07/30 08:19:44;;;;;;;5.33;4.33;;;28.00;41.80;;;;;;5027152;28;20455;-48
2022/07/30 08:22:10;;;;;;;11.93;4.30;;;28.10;42.20;;;;;;5023438;28;20535;-46
2022/07/30 08:24:36;;;;;;;4.20;3.80;;;28.20;41.70;;;;;;5024807;28;20548;-44
2022/07/30 08:27:01;;;;;;;4.83;4.07;;;28.30;41.20;;;;;;5012701;28;20273;-45
2022/07/30 08:29:28;;;;;;;5.03;4.63;;;28.40;41.70;;;;;;5029472;28;20192;-48
2022/07/30 08:31:54;;;;;;;7.93;5.10;;;28.30;40.90;;;;;;5028515;28;20558;-45
2022/07/30 08:34:20;;;;;;;6.27;4.53;;;28.10;41.10;;;;;;5027503;28;20813;-44
2022/07/30 08:36:46;;;;;;;5.77;4.30;;;28.20;41.50;;;;;;5025624;28;20471;-47
2022/07/30 08:39:12;;;;;;;4.73;4.40;;;28.40;41.20;;;;;;5020075;28;20250;-45
2022/07/30 08:41:38;;;;;;;4.17;3.87;;;28.60;41.10;;;;;;5020678;28;20448;-45
2022/07/30 08:44:09;;;;;;;4.33;3.67;;;28.70;41.20;;;;;;5021935;28;20236;-45
2022/07/30 08:46:40;;;;;;;7.70;3.90;;;28.80;41.50;;;;;;5022979;28;20200;-46
2022/07/30 08:49:06;;;;;;;6.57;4.47;;;29.00;41.10;;;;;;5023836;28;20807;-47
2022/07/30 08:51:33;;;;;;;4.03;3.73;;;29.10;40.90;;;;;;5022738;28;20448;-43
2022/07/30 08:54:00;;;;;;;4.40;3.93;;;29.20;41.00;;;;;;5019185;28;20482;-44
2022/07/30 08:56:26;;;;;;;6.80;4.70;;;29.20;39.90;;;;;;5024415;28;21271;-44
2022/07/30 08:58:52;;;;;;;4.47;4.10;;;29.40;40.60;;;;;;5024163;28;20973;-44
2022/07/30 09:01:18;;;;;;;5.53;4.50;;;29.50;39.50;;;;;;5036080;28;20440;-44
2022/07/30 09:03:43;;;;;;;7.20;3.80;;;29.60;39.00;;;;;;5019692;28;20221;-44
2022/07/30 09:06:09;;;;;;;3.67;3.43;;;29.70;39.20;;;;;;5021217;28;20254;-44
2022/07/30 09:08:35;;;;;;;5.37;3.60;;;29.70;38.60;;;;;;5024904;28;20278;-45
2022/07/30 09:11:00;;;;;;;3.90;3.60;;;29.60;37.80;;;;;;5020069;28;20974;-45
2022/07/30 09:13:31;;;;;;;6.10;3.73;;;29.70;38.00;;;;;;5017368;28;20225;-45
2022/07/30 09:15:57;;;;;;;5.73;3.60;;;29.70;37.90;;;;;;5021567;28;20201;-46
2022/07/30 09:18:37;;;;;;;5.10;3.30;;;29.60;37.20;;;;;;5024802;28;20535;-44
2022/07/30 09:21:17;;;;;;;4.90;3.40;;;29.60;37.00;;;;;;5025835;28;20453;-46
2022/07/30 09:24:01;;;;;;;6.90;4.40;;;29.70;36.90;;;;;;5024962;28;20518;-46
2022/07/30 09:26:28;;;;;;;4.13;3.83;;;29.70;36.80;;;;;;5024196;28;20452;-48
2022/07/30 09:28:54;;;;;;;4.23;3.70;;;29.50;36.30;;;;;;5026058;28;21147;-44
2022/07/30 09:31:21;;;;;;;4.63;3.60;;;29.40;36.40;;;;;;5033774;28;20431;-44
2022/07/30 09:33:47;;;;;;;8.53;3.30;;;29.40;36.30;;;;;;5029783;28;20955;-45
2022/07/30 09:36:16;;;;;;;5.60;3.90;;;29.20;35.90;;;;;;5029823;28;20472;-44
2022/07/30 09:38:52;;;;;;;7.17;3.50;;;29.30;36.00;;;;;;5028383;28;20205;-45
2022/07/30 09:41:36;;;;;;;6.00;3.27;;;29.40;36.00;;;;;;5022573;28;20451;-44
2022/07/30 09:44:03;;;;;;;3.70;3.40;;;29.50;35.60;;;;;;5014751;28;20506;-45
2022/07/30 09:46:50;;;;;;;3.67;3.10;;;29.70;35.30;;;;;;5022755;28;20509;-45
2022/07/30 09:49:21;;;;;;;3.43;3.23;;;29.70;34.70;;;;;;5026229;28;20447;-47
2022/07/30 09:51:47;;;;;;;6.33;3.80;;;29.70;34.70;;;;;;5028626;28;20594;-48
2022/07/30 09:54:13;;;;;;;4.10;3.73;;;29.80;34.70;;;;;;5023240;28;20451;-45
2022/07/30 09:56:39;;;;;;;3.50;3.30;;;30.10;34.40;;;;;;5023124;28;20448;-46
2022/07/30 09:59:06;;;;;;;5.63;3.30;;;30.40;34.30;;;;;;5029164;28;20715;-45
2022/07/30 10:01:52;;;;;;;4.23;3.33;;;30.60;34.10;;;;;;5026032;28;20451;-46
2022/07/30 10:04:29;;;;;;;6.03;3.40;;;30.70;33.20;;;;;;5027059;28;20498;-45
2022/07/30 10:06:56;;;;;;;5.90;3.50;;;30.40;33.20;;;;;;5032702;28;20436;-46
2022/07/30 10:09:32;;;;;;;4.60;3.10;;;30.50;33.80;;;;;;5027320;28;20463;-45
2022/07/30 10:12:00;;;;;;;3.40;3.10;;;30.50;33.30;;;;;;5027396;28;20464;-46
2022/07/30 10:14:32;;;;;;;5.60;3.87;;;30.60;33.60;;;;;;5027096;28;21025;-47
2022/07/30 10:16:59;;;;;;;3.03;2.73;;;30.80;33.10;;;;;;5026529;28;20535;-48
2022/07/30 10:19:26;;;;;;;3.37;3.10;;;30.90;33.20;;;;;;5027223;28;20466;-47
2022/07/30 10:21:56;;;;;;;3.27;3.07;;;31.20;32.90;;;;;;5021515;28;20466;-46
2022/07/30 10:24:24;;;;;;;5.27;3.10;;;31.10;33.30;;;;;;5027018;28;20487;-46
2022/07/30 10:26:52;;;;;;;3.10;2.90;;;31.10;32.20;;;;;;5031146;28;20510;-46
2022/07/30 10:29:20;;;;;;;3.37;2.50;;;30.90;31.90;;;;;;5023297;28;20436;-45
2022/07/30 10:31:47;;;;;;;3.93;2.70;;;30.90;31.20;;;;;;5025540;28;20476;-48
2022/07/30 10:34:18;;;;;;;2.80;2.53;;;31.00;31.10;;;;;;5027030;28;20451;-46
2022/07/30 10:36:47;;;;;;;3.10;2.57;;;31.10;30.70;;;;;;5027381;28;20474;-47
2022/07/30 10:39:18;;;;;;;2.60;2.40;;;31.10;30.80;;;;;;5028249;28;20446;-45
2022/07/30 10:42:30;;;;;;;5.50;2.87;;;31.20;30.40;;;;;;5028212;28;20460;-47
2022/07/30 10:45:02;;;;;;;2.90;2.70;;;31.40;30.20;;;;;;4999591;28;20604;-46
2022/07/30 10:47:29;;;;;;;6.40;2.50;;;31.90;31.00;;;;;;4996372;28;20507;-46
2022/07/30 10:50:08;;;;;;;5.90;3.00;;;32.10;30.10;;;;;;5015359;28;20475;-48
2022/07/30 10:53:00;;;;;;;4.90;2.80;;;32.00;30.10;;;;;;5028964;28;20455;-45
2022/07/30 10:55:35;;;;;;;4.00;3.10;;;32.00;30.00;;;;;;5030028;28;20463;-46
2022/07/30 10:58:03;;;;;;;2.60;2.50;;;32.00;30.60;;;;;;5028117;28;20447;-47
2022/07/30 11:00:55;;;;;;;3.83;3.00;;;32.20;30.50;;;;;;5025956;28;20456;-48
2022/07/30 11:03:30;;;;;;;3.33;3.03;;;32.40;29.90;;;;;;5031483;28;20476;-46
2022/07/30 11:06:14;;;;;;;3.30;3.00;;;32.60;29.10;;;;;;5029346;28;20447;-47
2022/07/30 11:08:42;;;;;;;2.90;2.70;;;32.90;28.80;;;;;;5035992;28;20461;-46
2022/07/30 11:11:19;;;;;;;2.70;2.50;;;33.10;29.30;;;;;;5030546;28;20448;-46
2022/07/30 11:13:59;;;;;;;2.90;2.70;;;33.30;28.90;;;;;;5030119;28;20518;-47
2022/07/30 11:16:31;;;;;;;2.97;2.77;;;33.40;28.80;;;;;;5030279;28;20451;-46
2022/07/30 11:19:05;;;;;;;3.40;3.00;;;33.20;28.40;;;;;;5029168;28;20451;-45
2022/07/30 11:21:31;;;;;;;5.10;2.93;;;33.30;29.10;;;;;;5030284;28;20479;-47
2022/07/30 11:23:58;;;;;;;3.43;3.13;;;33.50;28.40;;;;;;5031402;28;20923;-45
2022/07/30 11:26:42;;;;;;;5.47;3.10;;;33.20;29.00;;;;;;5033272;28;20204;-46
2022/07/30 11:29:38;;;;;;;4.97;3.07;;;33.20;28.90;;;;;;5026816;28;21759;-45
2022/07/30 11:32:23;;;;;;;4.53;2.80;;;33.30;29.70;;;;;;5021587;28;20441;-45
2022/07/30 11:34:49;;;;;;;5.70;2.70;;;33.60;28.70;;;;;;5028409;28;20447;-47
2022/07/30 11:37:16;;;;;;;2.43;2.20;;;33.60;28.40;;;;;;5020641;28;21100;-46
2022/07/30 11:39:56;;;;;;;2.90;2.20;;;33.80;28.20;;;;;;5031832;28;20443;-49
2022/07/30 11:42:34;;;;;;;3.70;2.40;;;33.90;27.60;;;;;;5029824;28;20455;-50
2022/07/30 11:45:14;;;;;;;3.63;3.33;;;33.70;27.20;;;;;;5028984;28;20499;-48
2022/07/30 11:47:48;;;;;;;2.83;2.63;;;33.70;27.80;;;;;;5025963;28;20534;-47
2022/07/30 11:50:31;;;;;;;5.80;2.70;;;33.80;28.30;;;;;;5026744;28;21021;-51
2022/07/30 11:53:04;;;;;;;2.67;2.47;;;33.90;28.30;;;;;;5031268;28;20424;-50
2022/07/30 11:55:39;;;;;;;2.60;2.10;;;33.90;27.70;;;;;;5029564;28;21254;-49
2022/07/30 11:58:20;;;;;;;2.70;2.40;;;33.70;27.40;;;;;;5018819;28;20527;-50
2022/07/30 12:00:46;;;;;;;3.70;2.13;;;33.60;27.10;;;;;;5041446;28;20460;-48
2022/07/30 12:03:17;;;;;;;2.57;2.10;;;33.90;27.00;;;;;;5028540;28;20444;-50
2022/07/30 12:05:43;;;;;;;2.70;2.17;;;34.20;26.60;;;;;;5026143;28;20781;-47
2022/07/30 12:08:10;;;;;;;5.30;2.70;;;34.50;26.60;;;;;;5024579;28;20473;-46
2022/07/30 12:10:38;;;;;;;2.30;2.20;;;34.10;26.00;;;;;;5028548;28;20459;-50
2022/07/30 12:13:12;;;;;;;2.20;2.00;;;34.10;26.30;;;;;;5026654;28;20436;-46
2022/07/30 12:15:48;;;;;;;3.50;2.50;;;34.00;26.80;;;;;;5025411;28;20486;-47
2022/07/30 12:18:23;;;;;;;3.00;2.40;;;34.20;26.60;;;;;;5022383;28;20479;-47
2022/07/30 12:20:54;;;;;;;3.83;2.30;;;34.40;26.30;;;;;;5025091;28;20930;-46
2022/07/30 12:23:19;;;;;;;2.50;2.30;;;34.40;26.10;;;;;;5027914;28;20541;-48
2022/07/30 12:25:45;;;;;;;2.30;2.10;;;34.40;26.20;;;;;;5022418;28;20448;-48
2022/07/30 12:28:19;;;;;;;3.20;2.50;;;34.40;26.30;;;;;;5021091;28;20197;-51
2022/07/30 12:30:51;;;;;;;3.27;2.23;;;34.50;26.10;;;;;;5019452;28;20230;-46
2022/07/30 12:33:18;;;;;;;2.97;2.77;;;34.50;26.00;;;;;;5026699;28;20813;-50
2022/07/30 12:35:47;;;;;;;2.53;2.33;;;34.40;26.10;;;;;;5028702;28;20527;-49
2022/07/30 12:38:14;;;;;;;3.93;2.10;;;34.40;26.40;;;;;;5027147;28;20510;-46
2022/07/30 12:40:57;;;;;;;4.00;2.13;;;34.40;26.20;;;;;;5029815;28;20435;-46
2022/07/30 12:43:42;;;;;;;2.80;2.60;;;34.80;26.20;;;;;;5029277;28;20868;-47
2022/07/30 12:46:08;;;;;;;4.20;2.50;;;34.40;26.20;;;;;;5025421;28;20451;-47
2022/07/30 12:48:34;;;;;;;6.07;2.67;;;34.60;26.30;;;;;;5029919;28;20444;-46
2022/07/30 12:51:07;;;;;;;2.63;2.30;;;34.80;26.20;;;;;;5030767;28;20866;-50
2022/07/30 12:53:33;;;;;;;3.33;2.30;;;34.90;26.20;;;;;;5033595;28;20231;-46
2022/07/30 12:56:17;;;;;;;3.40;2.37;;;35.00;25.90;;;;;;5031030;28;20435;-46